Time;durP1;ratioP1;P1;durP2;ratioP2;P2;SDS_P1;SDS_P2;PMS_P1;PMS_P2;Temp;Humidity;BMP_temperature;BMP_pressure;BME280_temperature;BME280_humidity;BME280_pressure;Samples;Min_cycle;Max_cycle;Signal;HPM_P1;HPM_P2
2022/08/05 00:01:33;;;;;;;223.57;212.70;;;;;;;;;;5040296;28;20056;-59
2022/08/05 00:03:59;;;;;;;206.35;196.40;;;;;;;;;;5044165;28;20036;-59
2022/08/05 00:06:24;;;;;;;180.57;171.75;;;;;;;;;;5043389;28;20051;-59
2022/08/05 00:08:49;;;;;;;162.38;154.40;;;;;;;;;;5046330;28;20455;-59
2022/08/05 00:11:15;;;;;;;158.20;150.43;;;;;;;;;;5046056;28;20585;-59
2022/08/05 00:13:43;;;;;;;152.38;144.90;;;;;;;;;;5050680;28;20139;-59
2022/08/05 00:16:11;;;;;;;154.80;147.20;;;;;;;;;;5044527;28;20071;-59
2022/08/05 00:18:37;;;;;;;126.53;120.13;;;;;;;;;;5043791;28;20533;-59
2022/08/05 00:21:03;;;;;;;85.93;81.65;;;;;;;;;;5044052;28;20041;-59
2022/08/05 00:23:28;;;;;;;75.15;71.40;;;;;;;;;;5044018;28;20044;-60
2022/08/05 00:25:53;;;;;;;65.00;61.72;;;;;;;;;;5042070;28;20390;-59
2022/08/05 00:28:19;;;;;;;45.30;43.00;;;;;;;;;;5046284;28;20094;-60
2022/08/05 00:30:45;;;;;;;37.78;35.85;;;;;;;;;;5047756;28;20155;-60
2022/08/05 00:33:11;;;;;;;35.70;33.90;;;;;;;;;;5039326;28;20033;-62
2022/08/05 00:35:36;;;;;;;26.58;25.17;;;;;;;;;;5041618;28;20033;-62
2022/08/05 00:38:02;;;;;;;26.52;25.08;;;;;;;;;;5042943;28;20348;-62
2022/08/05 00:40:28;;;;;;;20.38;19.27;;;;;;;;;;5045161;28;20052;-61
2022/08/05 00:42:57;;;;;;;19.63;18.52;;;;;;;;;;5042766;28;20166;-62
2022/08/05 00:45:23;;;;;;;21.85;20.65;;;;;;;;;;5046053;28;20036;-63
2022/08/05 00:47:48;;;;;;;21.35;20.15;;;;;;;;;;5048540;28;20414;-64
2022/08/05 00:50:13;;;;;;;24.48;23.15;;;;;;;;;;5042821;28;20363;-63
2022/08/05 00:52:39;;;;;;;20.95;19.83;;;;;;;;;;5047985;28;20040;-63
2022/08/05 00:55:05;;;;;;;18.35;17.35;;;;;;;;;;5044114;28;20040;-64
2022/08/05 00:57:30;;;;;;;21.85;20.65;;;;;;;;;;5040417;28;20037;-62
2022/08/05 00:59:55;;;;;;;24.10;22.80;;;;;;;;;;5040781;28;20067;-62
2022/08/05 01:02:21;;;;;;;20.95;19.75;;;;;;;;;;5039879;28;20053;-62
2022/08/05 01:04:46;;;;;;;19.48;18.35;;;;;;;;;;5043569;28;20140;-62
2022/08/05 01:07:11;;;;;;;16.50;15.40;;;;;;;;;;5040009;28;20025;-62
2022/08/05 01:09:37;;;;;;;15.20;14.32;;;;;;;;;;5045224;28;20045;-62
2022/08/05 01:12:07;;;;;;;15.85;14.85;;;;;;;;;;5044448;28;20025;-63
2022/08/05 01:14:39;;;;;;;15.05;14.15;;;;;;;;;;5047430;28;20044;-63
2022/08/05 01:17:07;;;;;;;13.93;13.13;;;;;;;;;;5042769;28;20466;-63
2022/08/05 01:19:47;;;;;;;15.38;14.48;;;;;;;;;;5043783;28;20517;-63
2022/08/05 01:22:39;;;;;;;15.63;14.73;;;;;;;;;;5046738;28;20028;-62
2022/08/05 01:25:10;;;;;;;21.02;19.83;;;;;;;;;;5044150;28;20470;-63
2022/08/05 01:27:45;;;;;;;18.95;17.85;;;;;;;;;;5041853;28;20071;-62
2022/08/05 01:30:12;;;;;;;20.50;19.40;;;;;;;;;;5048275;28;20107;-63
2022/08/05 01:32:39;;;;;;;22.90;21.70;;;;;;;;;;5044161;28;20021;-63
2022/08/05 01:35:13;;;;;;;28.88;27.35;;;;;;;;;;5041011;28;20110;-62
2022/08/05 01:37:44;;;;;;;25.33;23.98;;;;;;;;;;5039748;28;20133;-62
2022/08/05 01:40:11;;;;;;;28.50;27.00;;;;;;;;;;5039365;28;20041;-62
2022/08/05 01:42:39;;;;;;;28.67;27.15;;;;;;;;;;5039356;28;20085;-63
2022/08/05 01:45:06;;;;;;;22.55;21.30;;;;;;;;;;5044901;28;20417;-62
2022/08/05 01:47:34;;;;;;;17.67;16.67;;;;;;;;;;5047197;28;20029;-62
2022/08/05 01:50:02;;;;;;;31.13;29.52;;;;;;;;;;5058411;28;20119;-62
2022/08/05 01:52:30;;;;;;;19.83;18.73;;;;;;;;;;5046390;28;20078;-62
2022/08/05 01:54:58;;;;;;;23.00;21.75;;;;;;;;;;5044620;28;21631;-62
2022/08/05 01:57:27;;;;;;;22.23;21.02;;;;;;;;;;5040777;28;20060;-62
2022/08/05 01:59:56;;;;;;;18.60;17.58;;;;;;;;;;5044624;28;20104;-62
2022/08/05 02:02:22;;;;;;;19.07;18.07;;;;;;;;;;5044285;28;20399;-62
2022/08/05 02:04:49;;;;;;;13.00;12.20;;;;;;;;;;5039636;28;20044;-62
2022/08/05 02:07:15;;;;;;;12.90;12.10;;;;;;;;;;5042705;28;20025;-62
2022/08/05 02:09:41;;;;;;;13.60;12.18;;;;;;;;;;5042945;28;20114;-61
2022/08/05 02:12:33;;;;;;;12.10;11.35;;;;;;;;;;5051387;28;20447;-60
2022/08/05 02:15:08;;;;;;;10.32;9.73;;;;;;;;;;5048594;28;20087;-61
2022/08/05 02:18:02;;;;;;;11.32;10.57;;;;;;;;;;5051005;28;20340;-61
2022/08/05 02:20:32;;;;;;;11.10;10.40;;;;;;;;;;5047671;28;20335;-61
2022/08/05 02:23:01;;;;;;;9.38;8.77;;;;;;;;;;5046228;28;20060;-62
2022/08/05 02:25:30;;;;;;;10.95;10.25;;;;;;;;;;5049590;28;20173;-61
2022/08/05 02:27:57;;;;;;;10.57;9.95;;;;;;;;;;5049801;28;20250;-61
2022/08/05 02:30:26;;;;;;;12.05;11.35;;;;;;;;;;5050084;28;20050;-61
2022/08/05 02:32:55;;;;;;;11.20;10.50;;;;;;;;;;5048923;28;20041;-61
2022/08/05 02:35:24;;;;;;;13.48;12.68;;;;;;;;;;5046450;28;20075;-61
2022/08/05 02:37:52;;;;;;;13.23;12.43;;;;;;;;;;5045585;28;20494;-61
2022/08/05 02:40:20;;;;;;;10.93;10.25;;;;;;;;;;5040029;28;20064;-61
2022/08/05 02:42:46;;;;;;;11.68;10.98;;;;;;;;;;5043725;28;20034;-60
2022/08/05 02:45:12;;;;;;;11.07;10.38;;;;;;;;;;5047525;28;20122;-61
2022/08/05 02:47:38;;;;;;;13.27;12.48;;;;;;;;;;5049636;28;20032;-61
2022/08/05 02:50:06;;;;;;;12.73;12.02;;;;;;;;;;5048018;28;20029;-61
2022/08/05 02:52:32;;;;;;;11.05;10.35;;;;;;;;;;5052168;28;20051;-62
2022/08/05 02:54:59;;;;;;;47.00;44.58;;;;;;;;;;5047898;28;20025;-64
2022/08/05 02:57:26;;;;;;;51.83;49.17;;;;;;;;;;5045960;28;20131;-67
2022/08/05 02:59:53;;;;;;;97.07;92.28;;;;;;;;;;5051862;28;20128;-71
2022/08/05 03:02:22;;;;;;;69.55;66.10;;;;;;;;;;5051957;28;20029;-69
2022/08/05 03:04:50;;;;;;;79.87;75.80;;;;;;;;;;5049807;28;20033;-68
2022/08/05 03:07:17;;;;;;;61.08;58.00;;;;;;;;;;5047623;28;20045;-70
2022/08/05 03:09:44;;;;;;;33.95;32.17;;;;;;;;;;5042805;28;20216;-71
2022/08/05 03:12:09;;;;;;;29.05;27.50;;;;;;;;;;5049766;28;20136;-70
2022/08/05 03:14:35;;;;;;;37.35;35.45;;;;;;;;;;5046497;28;20131;-71
2022/08/05 03:17:00;;;;;;;44.00;41.70;;;;;;;;;;5048104;28;20331;-70
2022/08/05 03:19:25;;;;;;;42.58;40.38;;;;;;;;;;5048011;28;20032;-69
2022/08/05 03:21:51;;;;;;;51.17;48.58;;;;;;;;;;5049886;28;20029;-69
2022/08/05 03:24:18;;;;;;;66.95;63.55;;;;;;;;;;5048706;28;20029;-68
2022/08/05 03:26:44;;;;;;;119.60;113.45;;;;;;;;;;5046934;28;20363;-68
2022/08/05 03:29:09;;;;;;;169.98;161.52;;;;;;;;;;5043414;28;20033;-68
2022/08/05 03:31:35;;;;;;;205.65;195.57;;;;;;;;;;5045548;28;20083;-69
2022/08/05 03:34:00;;;;;;;233.60;222.23;;;;;;;;;;5043251;28;20025;-69
2022/08/05 03:36:26;;;;;;;195.85;186.32;;;;;;;;;;5048026;28;20025;-69
2022/08/05 03:38:51;;;;;;;178.48;169.70;;;;;;;;;;5048219;28;20451;-69
2022/08/05 03:41:17;;;;;;;125.30;119.13;;;;;;;;;;5028156;28;20028;-69
2022/08/05 03:43:42;;;;;;;136.73;129.80;;;;;;;;;;5040333;28;20120;-70
2022/08/05 03:46:08;;;;;;;98.57;93.70;;;;;;;;;;5041432;28;20060;-70
2022/08/05 03:48:33;;;;;;;105.90;100.55;;;;;;;;;;5042064;28;20663;-73
2022/08/05 03:51:11;;;;;;;83.85;79.70;;;;;;;;;;5046629;28;20048;-71
2022/08/05 03:53:40;;;;;;;97.07;92.18;;;;;;;;;;5042669;28;20063;-70
2022/08/05 03:56:27;;;;;;;68.28;64.82;;;;;;;;;;5047781;28;20102;-69
2022/08/05 03:58:56;;;;;;;58.50;55.50;;;;;;;;;;5042391;28;20051;-70
2022/08/05 04:01:22;;;;;;;62.03;58.85;;;;;;;;;;5039398;28;20114;-71
2022/08/05 04:03:50;;;;;;;92.22;87.53;;;;;;;;;;5047931;28;20109;-71
2022/08/05 04:06:17;;;;;;;84.43;79.97;;;;;;;;;;5043482;28;20036;-71
2022/08/05 04:08:43;;;;;;;175.75;167.02;;;;;;;;;;5041020;28;20332;-70
2022/08/05 04:11:09;;;;;;;293.65;279.08;;;;;;;;;;5044569;28;20116;-70
2022/08/05 04:13:39;;;;;;;219.23;208.27;;;;;;;;;;5046365;28;20052;-72
2022/08/05 04:16:06;;;;;;;84.23;80.00;;;;;;;;;;5041558;28;20102;-75
2022/08/05 04:18:31;;;;;;;53.97;51.22;;;;;;;;;;5039715;28;20525;-69
2022/08/05 04:20:57;;;;;;;51.50;48.90;;;;;;;;;;5046581;28;20033;-74
2022/08/05 04:23:24;;;;;;;32.30;30.60;;;;;;;;;;5044201;28;20117;-72
2022/08/05 04:25:50;;;;;;;24.63;23.23;;;;;;;;;;5047109;28;20425;-71
2022/08/05 04:28:16;;;;;;;39.38;37.38;;;;;;;;;;5044001;28;20024;-71
2022/08/05 04:30:41;;;;;;;26.60;25.05;;;;;;;;;;5047015;28;20044;-70
2022/08/05 04:33:07;;;;;;;30.13;28.52;;;;;;;;;;5044398;28;20799;-69
2022/08/05 04:35:32;;;;;;;74.72;70.97;;;;;;;;;;5044380;28;20052;-69
2022/08/05 04:37:57;;;;;;;47.67;45.25;;;;;;;;;;5044159;28;20040;-68
2022/08/05 04:40:23;;;;;;;49.70;47.15;;;;;;;;;;5042279;28;20025;-70
2022/08/05 04:42:48;;;;;;;34.20;32.33;;;;;;;;;;5040982;28;20670;-71
2022/08/05 04:45:13;;;;;;;53.00;50.30;;;;;;;;;;5044283;28;20025;-68
2022/08/05 04:47:39;;;;;;;38.72;36.70;;;;;;;;;;5042617;28;20047;-69
2022/08/05 04:50:04;;;;;;;93.22;88.53;;;;;;;;;;5044414;28;20033;-72
2022/08/05 04:52:30;;;;;;;140.63;133.65;;;;;;;;;;5044022;28;20024;-69
2022/08/05 04:54:55;;;;;;;147.50;140.20;;;;;;;;;;5042055;28;20099;-69
2022/08/05 04:57:20;;;;;;;195.68;186.10;;;;;;;;;;5041680;28;20026;-69
2022/08/05 04:59:46;;;;;;;217.57;206.98;;;;;;;;;;5042442;28;20039;-69
2022/08/05 05:02:11;;;;;;;24.42;23.10;;;;;;;;;;5043646;28;20437;-69
2022/08/05 05:04:37;;;;;;;21.88;20.67;;;;;;;;;;5043537;28;20037;-70
2022/08/05 05:07:03;;;;;;;25.85;24.38;;;;;;;;;;5042323;28;20094;-70
2022/08/05 05:09:28;;;;;;;21.77;20.52;;;;;;;;;;5040687;28;20029;-67
2022/08/05 05:11:53;;;;;;;46.42;44.05;;;;;;;;;;5042567;28;20044;-68
2022/08/05 05:14:19;;;;;;;58.60;54.88;;;;;;;;;;5042698;28;20041;-69
2022/08/05 05:16:44;;;;;;;30.00;28.30;;;;;;;;;;5042310;28;20055;-68
2022/08/05 05:19:09;;;;;;;21.85;20.65;;;;;;;;;;5043868;28;20043;-70
2022/08/05 05:21:35;;;;;;;17.20;16.20;;;;;;;;;;5040381;28;20043;-70
2022/08/05 05:24:00;;;;;;;20.10;19.00;;;;;;;;;;5045779;28;20065;-69
2022/08/05 05:26:25;;;;;;;17.45;16.45;;;;;;;;;;5041070;28;20059;-70
2022/08/05 05:28:51;;;;;;;20.65;19.45;;;;;;;;;;5039448;28;20041;-70
2022/08/05 05:31:16;;;;;;;22.98;21.73;;;;;;;;;;5043826;28;20048;-69
2022/08/05 05:33:41;;;;;;;32.25;30.35;;;;;;;;;;5041180;28;20036;-69
2022/08/05 05:36:07;;;;;;;26.77;25.35;;;;;;;;;;5042660;28;20028;-70
2022/08/05 05:38:32;;;;;;;28.10;26.45;;;;;;;;;;5046253;28;20044;-68
2022/08/05 05:40:58;;;;;;;33.85;32.08;;;;;;;;;;5040737;28;20029;-69
2022/08/05 05:43:23;;;;;;;44.80;42.50;;;;;;;;;;5041882;28;20113;-70
2022/08/05 05:45:49;;;;;;;45.75;43.40;;;;;;;;;;5040074;28;20112;-68
2022/08/05 05:48:14;;;;;;;44.13;41.83;;;;;;;;;;5043114;28;20029;-69
2022/08/05 05:50:40;;;;;;;41.67;39.50;;;;;;;;;;5043895;28;20044;-69
2022/08/05 05:53:08;;;;;;;45.25;42.85;;;;;;;;;;5041429;28;20025;-69
2022/08/05 05:55:33;;;;;;;47.42;45.03;;;;;;;;;;5044222;28;20029;-70
2022/08/05 05:57:59;;;;;;;60.90;57.78;;;;;;;;;;5045193;28;20481;-73
2022/08/05 06:00:24;;;;;;;68.47;65.03;;;;;;;;;;5039530;28;20032;-69
2022/08/05 06:02:50;;;;;;;95.03;90.28;;;;;;;;;;5029499;28;20038;-68
2022/08/05 06:05:15;;;;;;;76.97;73.13;;;;;;;;;;5043551;28;20136;-68
2022/08/05 06:07:41;;;;;;;69.57;66.00;;;;;;;;;;5042774;28;20028;-67
2022/08/05 06:10:08;;;;;;;76.85;72.95;;;;;;;;;;5046035;28;20125;-67
2022/08/05 06:12:35;;;;;;;66.28;62.80;;;;;;;;;;5045406;28;20061;-67
2022/08/05 06:15:01;;;;;;;77.78;73.78;;;;;;;;;;5041416;28;20033;-66
2022/08/05 06:17:26;;;;;;;80.43;76.32;;;;;;;;;;5042612;28;20028;-68
2022/08/05 06:19:52;;;;;;;58.90;55.88;;;;;;;;;;5036826;28;20705;-68
2022/08/05 06:22:25;;;;;;;69.15;65.68;;;;;;;;;;5042215;28;20056;-68
2022/08/05 06:24:51;;;;;;;65.28;61.75;;;;;;;;;;5040356;28;20188;-68
2022/08/05 06:27:17;;;;;;;67.78;64.32;;;;;;;;;;5039552;28;20383;-68
2022/08/05 06:29:42;;;;;;;64.03;60.75;;;;;;;;;;5043504;28;20037;-67
2022/08/05 06:32:08;;;;;;;61.08;57.92;;;;;;;;;;5042653;28;20104;-67
2022/08/05 06:34:34;;;;;;;74.65;70.75;;;;;;;;;;5043730;28;20044;-67
2022/08/05 06:36:59;;;;;;;65.50;62.17;;;;;;;;;;5042717;28;20454;-67
2022/08/05 06:39:25;;;;;;;65.78;62.38;;;;;;;;;;5040999;28;20051;-67
2022/08/05 06:41:51;;;;;;;69.10;65.47;;;;;;;;;;5046133;28;20629;-67
2022/08/05 06:44:16;;;;;;;39.72;37.58;;;;;;;;;;5043082;28;20112;-64
2022/08/05 06:46:42;;;;;;;52.45;49.75;;;;;;;;;;5042255;28;20024;-66
2022/08/05 06:49:07;;;;;;;64.90;61.50;;;;;;;;;;5044275;28;20025;-66
2022/08/05 06:51:32;;;;;;;95.05;90.18;;;;;;;;;;5041653;28;20025;-67
2022/08/05 06:53:59;;;;;;;105.53;100.13;;;;;;;;;;5040286;28;20032;-67
2022/08/05 06:56:24;;;;;;;93.90;89.05;;;;;;;;;;5043215;28;20554;-68
2022/08/05 06:58:49;;;;;;;111.03;105.38;;;;;;;;;;5040826;28;20066;-68
2022/08/05 07:01:15;;;;;;;104.47;99.22;;;;;;;;;;5044135;28;20059;-73
2022/08/05 07:03:40;;;;;;;92.88;88.20;;;;;;;;;;5045405;28;20105;-72
2022/08/05 07:06:06;;;;;;;73.95;70.20;;;;;;;;;;5046250;28;20017;-72
2022/08/05 07:08:31;;;;;;;79.03;74.80;;;;;;;;;;5046336;28;20047;-71
2022/08/05 07:10:57;;;;;;;49.67;47.13;;;;;;;;;;5046499;28;20446;-71
2022/08/05 07:16:49;;;;;;;59.25;56.25;;;;;;;;;;5042926;28;20086;-72
2022/08/05 07:18:55;;;;;;;83.22;79.07;;;;;;;;;;5040596;28;20080;-72
2022/08/05 07:21:21;;;;;;;65.80;62.47;;;;;;;;;;5041984;28;20057;-72
2022/08/05 07:23:46;;;;;;;56.78;53.90;;;;;;;;;;5047516;28;20359;-72
2022/08/05 07:26:11;;;;;;;59.85;56.78;;;;;;;;;;5045299;28;20442;-72
2022/08/05 07:28:37;;;;;;;87.38;83.00;;;;;;;;;;5045697;28;20466;-72
2022/08/05 07:31:02;;;;;;;77.05;73.18;;;;;;;;;;5041998;28;20037;-72
2022/08/05 07:33:27;;;;;;;95.80;91.05;;;;;;;;;;5042550;28;20120;-71
2022/08/05 07:35:53;;;;;;;103.72;98.57;;;;;;;;;;5045531;28;20033;-71
2022/08/05 07:38:19;;;;;;;108.38;102.97;;;;;;;;;;5046275;28;20109;-71
2022/08/05 07:40:44;;;;;;;90.25;85.57;;;;;;;;;;5044368;28;20109;-71
2022/08/05 07:43:10;;;;;;;82.63;78.53;;;;;;;;;;5047817;28;20033;-69
2022/08/05 07:45:36;;;;;;;105.00;99.60;;;;;;;;;;5046392;28;20033;-69
2022/08/05 07:48:02;;;;;;;78.30;74.35;;;;;;;;;;5045640;28;20367;-69
2022/08/05 07:50:27;;;;;;;79.78;75.68;;;;;;;;;;5049914;28;20455;-69
2022/08/05 07:52:53;;;;;;;82.78;78.65;;;;;;;;;;5047175;28;20021;-69
2022/08/05 07:55:18;;;;;;;103.22;98.10;;;;;;;;;;5041617;28;20068;-69
2022/08/05 07:57:44;;;;;;;120.35;114.38;;;;;;;;;;5026188;28;20029;-70
2022/08/05 08:00:10;;;;;;;131.02;124.50;;;;;;;;;;5045216;28;20028;-70
2022/08/05 08:02:36;;;;;;;110.72;105.25;;;;;;;;;;5042769;28;20045;-72
2022/08/05 08:05:01;;;;;;;121.45;115.38;;;;;;;;;;5048921;28;20170;-74
2022/08/05 08:07:26;;;;;;;125.10;118.85;;;;;;;;;;5049341;28;20025;-71
2022/08/05 08:09:52;;;;;;;127.10;120.75;;;;;;;;;;5049742;28;20048;-72
2022/08/05 08:12:18;;;;;;;125.90;119.57;;;;;;;;;;5045012;28;20052;-74
2022/08/05 08:14:44;;;;;;;122.88;116.72;;;;;;;;;;5048766;28;20048;-74
2022/08/05 08:17:09;;;;;;;131.20;124.60;;;;;;;;;;5046365;28;20454;-73
2022/08/05 08:19:40;;;;;;;136.68;129.73;;;;;;;;;;5048472;28;20041;-73
2022/08/05 08:22:06;;;;;;;141.57;134.25;;;;;;;;;;5046335;28;20100;-71
2022/08/05 08:24:33;;;;;;;149.65;142.10;;;;;;;;;;5047354;28;20013;-73
2022/08/05 08:26:58;;;;;;;127.63;121.15;;;;;;;;;;5047180;28;20669;-75
2022/08/05 08:29:24;;;;;;;119.93;113.80;;;;;;;;;;5041558;28;20029;-74
2022/08/05 08:31:49;;;;;;;120.63;114.40;;;;;;;;;;5044825;28;20029;-74
2022/08/05 08:34:20;;;;;;;110.00;104.40;;;;;;;;;;5044000;28;20033;-73
2022/08/05 08:36:45;;;;;;;105.22;99.88;;;;;;;;;;5045709;28;20036;-73
2022/08/05 08:39:11;;;;;;;108.15;102.65;;;;;;;;;;5046307;28;20070;-73
2022/08/05 08:41:39;;;;;;;103.28;98.05;;;;;;;;;;5049228;28;20032;-72
2022/08/05 08:44:07;;;;;;;88.43;83.95;;;;;;;;;;5051538;28;20033;-73
2022/08/05 08:46:33;;;;;;;104.35;99.05;;;;;;;;;;5044480;28;20037;-73
2022/08/05 08:49:00;;;;;;;73.65;69.90;;;;;;;;;;5047154;28;20108;-72
2022/08/05 08:51:30;;;;;;;74.63;70.82;;;;;;;;;;5042378;28;20029;-73
2022/08/05 08:53:56;;;;;;;48.50;45.97;;;;;;;;;;5045171;28;22452;-71
2022/08/05 08:56:22;;;;;;;53.65;50.95;;;;;;;;;;5044459;28;20079;-71
2022/08/05 08:58:48;;;;;;;64.15;60.92;;;;;;;;;;5042590;28;20370;-70
2022/08/05 09:01:14;;;;;;;54.20;51.33;;;;;;;;;;5041861;28;20045;-71
2022/08/05 09:03:39;;;;;;;56.78;53.88;;;;;;;;;;5042922;28;20041;-72
2022/08/05 09:06:05;;;;;;;55.33;52.28;;;;;;;;;;5041465;28;20868;-69
2022/08/05 09:08:30;;;;;;;61.00;57.90;;;;;;;;;;5043355;28;20036;-74
2022/08/05 09:10:57;;;;;;;54.00;51.25;;;;;;;;;;5042668;28;20382;-70
2022/08/05 09:13:23;;;;;;;53.25;50.50;;;;;;;;;;5038759;28;20053;-71
2022/08/05 09:15:49;;;;;;;46.08;43.75;;;;;;;;;;5044279;28;20029;-69
2022/08/05 09:18:14;;;;;;;41.25;39.15;;;;;;;;;;5042415;28;20043;-68
2022/08/05 09:20:43;;;;;;;48.92;46.42;;;;;;;;;;5040738;28;20610;-67
2022/08/05 09:23:16;;;;;;;46.92;44.55;;;;;;;;;;5044430;28;20450;-66
2022/08/05 09:25:47;;;;;;;41.72;39.60;;;;;;;;;;5044293;28;20022;-67
2022/08/05 09:28:14;;;;;;;48.83;46.35;;;;;;;;;;5042954;28;20032;-66
2022/08/05 09:30:57;;;;;;;49.08;46.53;;;;;;;;;;5039494;28;20553;-68
2022/08/05 09:33:24;;;;;;;55.85;53.00;;;;;;;;;;5042565;28;20041;-68
2022/08/05 09:36:07;;;;;;;44.50;42.25;;;;;;;;;;5043696;28;20071;-66
2022/08/05 09:38:33;;;;;;;65.57;62.33;;;;;;;;;;5041709;28;20033;-66
2022/08/05 09:41:04;;;;;;;60.90;57.88;;;;;;;;;;5042014;28;20033;-67
2022/08/05 09:43:32;;;;;;;47.63;45.22;;;;;;;;;;5047539;28;20438;-66
2022/08/05 09:45:58;;;;;;;44.20;41.97;;;;;;;;;;5042560;28;20033;-67
2022/08/05 09:48:26;;;;;;;38.20;36.25;;;;;;;;;;5036071;28;20159;-67
2022/08/05 09:51:03;;;;;;;30.50;28.90;;;;;;;;;;5044306;28;20025;-65
2022/08/05 09:53:29;;;;;;;29.00;27.48;;;;;;;;;;5042724;28;20028;-66
2022/08/05 09:56:01;;;;;;;23.50;22.25;;;;;;;;;;5039963;28;20029;-66
2022/08/05 09:58:27;;;;;;;26.70;25.30;;;;;;;;;;5042363;28;20352;-65
2022/08/05 10:01:05;;;;;;;21.23;20.05;;;;;;;;;;5043629;28;20029;-64
2022/08/05 10:03:31;;;;;;;22.23;21.02;;;;;;;;;;5040138;28;20037;-64
2022/08/05 10:06:08;;;;;;;33.67;31.88;;;;;;;;;;5042559;28;20107;-65
2022/08/05 10:08:35;;;;;;;30.50;28.85;;;;;;;;;;5040313;28;20369;-65
2022/08/05 10:11:03;;;;;;;39.13;37.13;;;;;;;;;;5040559;28;20032;-66
2022/08/05 10:13:37;;;;;;;40.60;38.55;;;;;;;;;;5037415;28;20047;-65
2022/08/05 10:16:25;;;;;;;31.00;29.40;;;;;;;;;;5035664;28;20033;-65
2022/08/05 10:18:52;;;;;;;41.20;39.10;;;;;;;;;;5035988;28;20033;-65
2022/08/05 10:21:18;;;;;;;30.55;28.95;;;;;;;;;;5043239;28;20083;-64
2022/08/05 10:23:44;;;;;;;45.70;43.35;;;;;;;;;;5046418;28;20040;-64
2022/08/05 10:26:11;;;;;;;23.13;21.90;;;;;;;;;;5044485;28;20107;-64
2022/08/05 10:28:37;;;;;;;25.48;24.13;;;;;;;;;;5052819;28;20032;-63
2022/08/05 10:31:03;;;;;;;35.90;34.10;;;;;;;;;;5045083;28;20082;-64
2022/08/05 10:33:30;;;;;;;28.05;26.55;;;;;;;;;;5051315;28;20032;-66
2022/08/05 10:35:56;;;;;;;32.25;30.55;;;;;;;;;;5052952;28;20052;-63
2022/08/05 10:38:25;;;;;;;33.78;31.98;;;;;;;;;;5046096;28;20642;-65
2022/08/05 10:40:55;;;;;;;15.82;14.93;;;;;;;;;;5046153;28;20037;-64
2022/08/05 10:43:44;;;;;;;13.23;12.43;;;;;;;;;;5045660;28;20044;-64
2022/08/05 10:46:12;;;;;;;12.70;11.90;;;;;;;;;;5044803;28;20049;-65
2022/08/05 10:48:53;;;;;;;12.27;11.57;;;;;;;;;;5043986;28;20144;-65
2022/08/05 10:51:20;;;;;;;13.00;12.23;;;;;;;;;;5047700;28;20056;-65
2022/08/05 10:53:49;;;;;;;12.73;12.00;;;;;;;;;;5049819;28;20040;-65
2022/08/05 10:56:19;;;;;;;23.73;22.42;;;;;;;;;;5046565;28;20024;-65
2022/08/05 10:59:03;;;;;;;;;;;;;;;;;;5049301;28;20538;-66
2022/08/05 11:01:37;;;;;;;9.60;9.00;;;;;;;;;;5048718;28;19922;-66
2022/08/05 11:04:16;;;;;;;9.68;9.07;;;;;;;;;;5047974;28;20037;-65
2022/08/05 11:06:59;;;;;;;9.20;8.60;;;;;;;;;;5047378;28;20056;-65
2022/08/05 11:09:38;;;;;;;10.15;9.55;;;;;;;;;;5049256;28;20052;-66
2022/08/05 11:12:04;;;;;;;9.98;9.38;;;;;;;;;;5047319;28;20358;-65
2022/08/05 11:14:32;;;;;;;11.57;10.85;;;;;;;;;;5047937;28;20048;-64
2022/08/05 11:17:25;;;;;;;10.82;10.13;;;;;;;;;;5045617;28;20044;-65
2022/08/05 11:19:52;;;;;;;10.43;9.75;;;;;;;;;;5049249;28;20478;-65
2022/08/05 11:22:43;;;;;;;10.77;10.07;;;;;;;;;;5039019;28;20048;-64
2022/08/05 11:25:28;;;;;;;9.40;8.80;;;;;;;;;;5047519;28;20029;-64
2022/08/05 11:27:55;;;;;;;11.85;11.15;;;;;;;;;;5050822;28;20095;-64
2022/08/05 11:30:21;;;;;;;8.43;7.93;;;;;;;;;;5045701;28;20115;-65
2022/08/05 11:32:46;;;;;;;9.77;9.18;;;;;;;;;;5046480;28;20117;-65
2022/08/05 11:35:51;;;;;;;11.45;10.73;;;;;;;;;;5051816;28;20422;-65
2022/08/05 11:38:16;;;;;;;11.43;10.73;;;;;;;;;;5028098;28;20056;-65
2022/08/05 11:41:19;;;;;;;19.60;18.50;;;;;;;;;;5028277;28;20033;-65
2022/08/05 11:44:02;;;;;;;15.23;14.32;;;;;;;;;;4999034;28;20470;-65
2022/08/05 11:46:35;;;;;;;36.40;34.53;;;;;;;;;;5042974;28;20021;-64
2022/08/05 11:49:02;;;;;;;15.95;15.05;;;;;;;;;;5044117;28;20029;-64
2022/08/05 11:51:29;;;;;;;21.42;20.23;;;;;;;;;;5047081;28;20040;-65
2022/08/05 11:53:55;;;;;;;16.27;15.38;;;;;;;;;;5044477;28;20076;-65
2022/08/05 11:56:21;;;;;;;19.77;18.60;;;;;;;;;;5041241;28;20061;-64
2022/08/05 11:58:48;;;;;;;19.40;18.30;;;;;;;;;;5047932;28;20544;-64
2022/08/05 12:01:18;;;;;;;13.93;13.13;;;;;;;;;;5050034;28;20611;-63
2022/08/05 12:03:50;;;;;;;42.47;40.30;;;;;;;;;;5045920;28;20052;-64
2022/08/05 12:06:18;;;;;;;56.75;53.90;;;;;;;;;;5044483;28;20064;-63
2022/08/05 12:08:49;;;;;;;80.93;76.93;;;;;;;;;;5044576;28;20035;-64
2022/08/05 12:11:23;;;;;;;48.33;45.88;;;;;;;;;;5048498;28;20032;-64
2022/08/05 12:14:07;;;;;;;74.13;70.43;;;;;;;;;;5039866;28;20030;-63
2022/08/05 12:16:34;;;;;;;74.32;70.63;;;;;;;;;;5042951;28;20025;-64
2022/08/05 12:18:59;;;;;;;64.00;60.78;;;;;;;;;;5041853;28;20029;-63
2022/08/05 12:21:33;;;;;;;107.28;101.97;;;;;;;;;;5044504;28;20627;-64
2022/08/05 12:24:03;;;;;;;108.15;102.82;;;;;;;;;;5037153;28;20098;-63
2022/08/05 12:26:37;;;;;;;117.40;111.63;;;;;;;;;;5041509;28;20035;-62
2022/08/05 12:29:08;;;;;;;79.65;75.68;;;;;;;;;;5046753;28;20029;-64
2022/08/05 12:31:34;;;;;;;115.95;110.03;;;;;;;;;;5043676;28;20107;-63
2022/08/05 12:34:01;;;;;;;89.65;85.20;;;;;;;;;;5049996;28;20517;-63
2022/08/05 12:36:26;;;;;;;96.43;91.65;;;;;;;;;;5051717;28;20021;-64
2022/08/05 12:38:52;;;;;;;90.80;86.30;;;;;;;;;;5040320;28;20040;-63
2022/08/05 12:41:17;;;;;;;85.80;81.55;;;;;;;;;;5045053;28;20028;-63
2022/08/05 12:43:57;;;;;;;84.60;80.40;;;;;;;;;;5053626;28;20458;-64
2022/08/05 12:46:25;;;;;;;106.55;101.30;;;;;;;;;;5054910;28;20402;-63
2022/08/05 12:49:08;;;;;;;82.80;78.68;;;;;;;;;;5042711;28;20034;-63
2022/08/05 12:51:56;;;;;;;89.13;84.70;;;;;;;;;;5040373;28;20032;-63
2022/08/05 12:54:24;;;;;;;69.68;66.22;;;;;;;;;;5040227;28;20104;-63
2022/08/05 12:56:52;;;;;;;52.42;49.78;;;;;;;;;;5041673;28;20458;-63
2022/08/05 12:59:24;;;;;;;48.90;46.40;;;;;;;;;;5044446;28;20071;-63
2022/08/05 13:02:06;;;;;;;49.58;47.08;;;;;;;;;;5042231;28;20143;-63
2022/08/05 13:04:38;;;;;;;23.02;21.80;;;;;;;;;;5043137;28;20033;-63
2022/08/05 13:07:11;;;;;;;25.58;24.20;;;;;;;;;;5044149;28;20025;-63
2022/08/05 13:09:37;;;;;;;26.08;24.67;;;;;;;;;;5044875;28;20033;-63
2022/08/05 13:12:05;;;;;;;40.97;38.88;;;;;;;;;;5047994;28;20472;-63
2022/08/05 13:14:36;;;;;;;32.65;30.98;;;;;;;;;;5046335;28;20067;-63
2022/08/05 13:17:07;;;;;;;23.83;22.52;;;;;;;;;;5043072;28;20044;-62
2022/08/05 13:19:33;;;;;;;15.13;14.25;;;;;;;;;;5050789;28;20043;-62
2022/08/05 13:21:58;;;;;;;26.15;24.75;;;;;;;;;;5039850;28;20023;-63
2022/08/05 13:24:23;;;;;;;23.02;21.75;;;;;;;;;;5041943;28;20037;-63
2022/08/05 13:26:50;;;;;;;39.80;37.58;;;;;;;;;;5046137;28;20122;-63
2022/08/05 13:29:16;;;;;;;32.90;31.20;;;;;;;;;;5044462;28;20633;-63
2022/08/05 13:31:41;;;;;;;28.27;26.77;;;;;;;;;;5042381;28;20124;-62
2022/08/05 13:34:07;;;;;;;19.20;18.10;;;;;;;;;;5040627;28;20112;-62
2022/08/05 13:36:33;;;;;;;43.50;41.30;;;;;;;;;;5046590;28;20093;-62
2022/08/05 13:39:00;;;;;;;36.03;34.15;;;;;;;;;;5041579;28;20037;-63
2022/08/05 13:41:25;;;;;;;28.90;27.30;;;;;;;;;;5044476;28;20068;-63
2022/08/05 13:43:51;;;;;;;20.63;19.52;;;;;;;;;;5047045;28;20052;-62
2022/08/05 13:46:16;;;;;;;38.00;36.08;;;;;;;;;;5047518;28;20029;-63
2022/08/05 13:48:42;;;;;;;32.15;30.45;;;;;;;;;;5049180;28;20040;-62
2022/08/05 13:51:09;;;;;;;21.83;20.63;;;;;;;;;;5043595;28;20032;-63
2022/08/05 13:53:34;;;;;;;23.45;22.20;;;;;;;;;;5043008;28;20490;-62
2022/08/05 13:56:01;;;;;;;29.85;28.25;;;;;;;;;;5039230;28;20061;-62
2022/08/05 13:58:27;;;;;;;26.67;25.27;;;;;;;;;;5042458;28;20028;-63
2022/08/05 14:00:52;;;;;;;28.05;26.58;;;;;;;;;;5044063;28;20028;-63
2022/08/05 14:03:18;;;;;;;37.38;35.42;;;;;;;;;;5046177;28;20020;-62
2022/08/05 14:05:43;;;;;;;15.57;14.68;;;;;;;;;;5042304;28;20036;-63
2022/08/05 14:08:08;;;;;;;20.45;19.35;;;;;;;;;;5039047;28;20522;-63
2022/08/05 14:10:34;;;;;;;20.60;19.40;;;;;;;;;;5042473;28;20056;-63
2022/08/05 14:12:59;;;;;;;17.65;16.65;;;;;;;;;;5041442;28;20036;-63
2022/08/05 14:15:26;;;;;;;16.95;15.95;;;;;;;;;;5044986;28;20064;-63
2022/08/05 14:17:51;;;;;;;15.18;14.30;;;;;;;;;;5043970;28;20469;-64
2022/08/05 14:20:17;;;;;;;14.40;13.55;;;;;;;;;;5048114;28;20120;-63
2022/08/05 14:22:42;;;;;;;36.53;34.63;;;;;;;;;;5042135;28;20037;-63